Time;durP1;ratioP1;P1;durP2;ratioP2;P2;SDS_P1;SDS_P2;PMS_P1;PMS_P2;Temp;Humidity;BMP_temperature;BMP_pressure;BME280_temperature;BME280_humidity;BME280_pressure;Samples;Min_cycle;Max_cycle;Signal;HPM_P1;HPM_P2
2023/03/31 00:02:28;0.00;0.00;0.62;0.00;0.00;0.62;3.60;2.07;;;25.10;25.20;;;;;;2273088;61;20423;-70
2023/03/31 00:05:16;0.00;0.00;0.62;0.00;0.00;0.62;3.70;2.30;;;25.10;25.20;;;;;;2272443;61;20370;-67
2023/03/31 00:08:01;0.00;0.00;0.62;0.00;0.00;0.62;3.97;2.57;;;25.10;25.20;;;;;;2273112;61;20953;-67
2023/03/31 00:10:46;0.00;0.00;0.62;0.00;0.00;0.62;3.30;2.53;;;25.10;25.30;;;;;;2272117;61;20442;-67
2023/03/31 00:13:31;0.00;0.00;0.62;0.00;0.00;0.62;3.20;2.67;;;25.10;25.30;;;;;;2272369;61;20886;-66
2023/03/31 00:16:18;0.00;0.00;0.62;0.00;0.00;0.62;3.20;2.40;;;25.10;25.30;;;;;;2272759;60;20463;-67
2023/03/31 00:19:04;0.00;0.00;0.62;0.00;0.00;0.62;3.20;2.03;;;25.10;25.30;;;;;;2271853;61;20405;-66
2023/03/31 00:21:50;0.00;0.00;0.62;0.00;0.00;0.62;2.70;2.13;;;25.10;25.30;;;;;;2272950;61;20443;-66
2023/03/31 00:24:35;0.00;0.00;0.62;0.00;0.00;0.62;3.27;2.37;;;25.10;25.30;;;;;;2272866;61;20358;-66
2023/03/31 00:27:20;0.00;0.00;0.62;0.00;0.00;0.62;3.03;2.07;;;25.10;25.80;;;;;;2271526;61;20377;-67
2023/03/31 00:30:06;0.00;0.00;0.62;0.00;0.00;0.62;3.07;2.23;;;25.10;25.30;;;;;;2265260;61;20501;-70
2023/03/31 00:32:52;0.00;0.00;0.62;0.00;0.00;0.62;3.17;2.30;;;25.10;25.30;;;;;;2268476;61;20409;-68
2023/03/31 00:35:39;0.00;0.00;0.62;0.00;0.00;0.62;3.40;2.50;;;25.10;25.30;;;;;;2265070;61;20363;-66
2023/03/31 00:38:23;0.00;0.00;0.62;0.00;0.00;0.62;3.83;2.67;;;25.10;25.30;;;;;;2268789;61;20470;-66
2023/03/31 00:41:09;0.00;0.00;0.62;0.00;0.00;0.62;2.60;1.97;;;25.10;25.30;;;;;;2267856;61;20367;-66
2023/03/31 00:44:23;0.00;0.00;0.62;0.00;0.00;0.62;3.77;2.30;;;25.10;25.30;;;;;;2268697;61;20405;-67
2023/03/31 00:47:14;0.00;0.00;0.62;0.00;0.00;0.62;2.80;1.87;;;25.10;25.30;;;;;;2268223;61;20424;-66
2023/03/31 00:50:00;0.00;0.00;0.62;0.00;0.00;0.62;3.33;2.27;;;25.10;25.30;;;;;;2267835;61;20355;-71
2023/03/31 00:52:49;0.00;0.00;0.62;0.00;0.00;0.62;3.03;2.40;;;25.10;25.40;;;;;;2268648;61;20367;-68
2023/03/31 00:55:39;0.00;0.00;0.62;0.00;0.00;0.62;3.50;2.20;;;25.10;25.90;;;;;;2264936;61;20359;-67
2023/03/31 00:58:27;0.00;0.00;0.62;0.00;0.00;0.62;2.30;2.10;;;25.10;25.30;;;;;;2268644;61;20958;-67
2023/03/31 01:01:18;0.00;0.00;0.62;0.00;0.00;0.62;4.13;2.50;;;25.00;25.30;;;;;;2265186;61;20362;-66
2023/03/31 01:04:04;0.00;0.00;0.62;0.00;0.00;0.62;2.43;1.83;;;25.10;25.30;;;;;;2267846;61;20410;-65
2023/03/31 01:06:59;0.00;0.00;0.62;0.00;0.00;0.62;3.03;1.90;;;25.10;25.30;;;;;;2268559;61;20762;-66
2023/03/31 01:09:46;0.00;0.00;0.62;0.00;0.00;0.62;2.70;2.10;;;25.10;25.40;;;;;;2264729;61;20359;-66
2023/03/31 01:12:36;0.00;0.00;0.62;0.00;0.00;0.62;2.53;1.73;;;25.00;25.30;;;;;;2265008;61;20469;-67
2023/03/31 01:15:21;0.00;0.00;0.62;0.00;0.00;0.62;2.60;1.70;;;25.00;25.30;;;;;;2265637;61;20489;-67
2023/03/31 01:18:08;0.00;0.00;0.62;0.00;0.00;0.62;2.50;1.97;;;25.00;25.30;;;;;;2264868;61;20408;-66
2023/03/31 01:21:29;0.00;0.00;0.62;0.00;0.00;0.62;2.40;1.50;;;25.00;25.30;;;;;;2268361;61;20355;-65
2023/03/31 01:25:24;0.00;0.00;0.62;0.00;0.00;0.62;2.73;2.07;;;25.00;25.30;;;;;;2265149;61;20832;-65
2023/03/31 01:28:24;0.00;0.00;0.62;0.00;0.00;0.62;3.30;2.10;;;25.00;25.30;;;;;;2247185;61;20375;-65
2023/03/31 01:31:56;0.00;0.00;0.62;0.00;0.00;0.62;2.53;1.90;;;25.00;25.40;;;;;;2244387;61;20364;-65
2023/03/31 01:35:27;0.00;0.00;0.62;0.00;0.00;0.62;2.60;1.87;;;25.00;25.40;;;;;;2246921;61;20520;-66
2023/03/31 01:38:48;0.00;0.00;0.62;0.00;0.00;0.62;2.00;1.60;;;25.00;25.40;;;;;;2247489;61;20590;-66
2023/03/31 01:41:52;0.00;0.00;0.62;0.00;0.00;0.62;2.00;1.50;;;25.00;25.40;;;;;;2246614;61;20475;-66
2023/03/31 01:44:44;0.00;0.00;0.62;0.00;0.00;0.62;2.57;1.80;;;25.00;25.40;;;;;;2247420;61;20411;-66
2023/03/31 01:47:39;0.00;0.00;0.62;0.00;0.00;0.62;2.33;1.50;;;25.00;25.40;;;;;;2246930;61;20956;-65
2023/03/31 01:50:30;0.00;0.00;0.62;0.00;0.00;0.62;2.53;1.70;;;25.00;25.40;;;;;;2246392;61;20986;-67
2023/03/31 01:53:22;0.00;0.00;0.62;0.00;0.00;0.62;2.20;1.40;;;25.00;25.40;;;;;;2247106;61;20355;-67
2023/03/31 01:56:12;0.00;0.00;0.62;0.00;0.00;0.62;2.80;1.67;;;25.00;25.40;;;;;;2246406;61;20917;-67
2023/03/31 01:59:07;0.00;0.00;0.62;0.00;0.00;0.62;2.67;1.90;;;25.00;25.40;;;;;;2244343;61;20363;-66
2023/03/31 02:01:56;0.00;0.00;0.62;0.00;0.00;0.62;2.10;1.60;;;25.00;25.40;;;;;;2244135;61;20967;-67
2023/03/31 02:04:45;0.00;0.00;0.62;0.00;0.00;0.62;2.63;1.73;;;25.00;25.40;;;;;;2267160;61;20392;-66
2023/03/31 02:07:36;0.00;0.00;0.62;0.00;0.00;0.62;3.10;1.80;;;25.00;25.40;;;;;;2265315;61;20941;-66
2023/03/31 02:10:24;0.00;0.00;0.62;0.00;0.00;0.62;1.77;1.40;;;25.00;25.40;;;;;;2267125;61;20371;-67
2023/03/31 02:13:12;0.00;0.00;0.62;0.00;0.00;0.62;2.00;1.53;;;25.00;25.40;;;;;;2268575;61;20449;-66
2023/03/31 02:16:10;0.00;0.00;0.62;0.00;0.00;0.62;2.13;1.17;;;25.00;25.40;;;;;;2268232;61;20404;-65
2023/03/31 02:19:01;0.00;0.00;0.62;0.00;0.00;0.62;2.70;1.57;;;25.00;25.40;;;;;;2267471;61;20405;-67
2023/03/31 02:21:51;0.00;0.00;0.62;0.00;0.00;0.62;1.90;1.50;;;25.00;25.40;;;;;;2268662;61;20475;-67
2023/03/31 02:24:39;0.00;0.00;0.62;0.00;0.00;0.62;2.60;1.70;;;24.90;25.30;;;;;;2264403;61;20401;-67
2023/03/31 02:27:27;0.00;0.00;0.62;0.00;0.00;0.62;2.10;1.60;;;25.00;25.40;;;;;;2265373;61;20423;-67
2023/03/31 02:30:13;0.00;0.00;0.62;0.00;0.00;0.62;2.17;1.37;;;24.90;25.30;;;;;;2264922;61;20437;-66
2023/03/31 02:32:59;0.00;0.00;0.62;0.00;0.00;0.62;2.10;1.47;;;24.90;25.30;;;;;;2264295;61;20759;-66
2023/03/31 02:35:43;0.00;0.00;0.62;0.00;0.00;0.62;3.23;1.80;;;25.00;25.40;;;;;;2265177;61;20412;-70
2023/03/31 02:38:34;0.00;0.00;0.62;0.00;0.00;0.62;2.00;1.37;;;25.00;25.40;;;;;;2264810;61;20371;-66
2023/03/31 02:41:19;0.00;0.00;0.62;0.00;0.00;0.62;3.03;1.90;;;24.90;25.30;;;;;;2267751;61;20359;-67
2023/03/31 02:44:04;0.00;0.00;0.62;0.00;0.00;0.62;2.53;1.50;;;24.90;25.30;;;;;;2268401;61;20569;-66
2023/03/31 02:46:50;0.00;0.00;0.62;0.00;0.00;0.62;2.33;1.70;;;25.00;25.40;;;;;;2264301;61;20831;-66
2023/03/31 02:49:40;0.00;0.00;0.62;0.00;0.00;0.62;2.23;1.30;;;24.90;25.30;;;;;;2264585;61;20506;-66
2023/03/31 02:52:51;0.00;0.00;0.62;0.00;0.00;0.62;2.27;1.33;;;24.90;25.30;;;;;;2265164;61;20460;-67
2023/03/31 02:56:05;0.00;0.00;0.62;0.00;0.00;0.62;2.00;1.50;;;24.90;25.40;;;;;;2264405;61;20379;-66
2023/03/31 02:59:15;0.00;0.00;0.62;0.00;0.00;0.62;1.53;1.10;;;24.90;25.30;;;;;;2267983;61;20394;-67
2023/03/31 03:02:13;0.00;0.00;0.62;0.00;0.00;0.62;1.60;1.20;;;24.90;25.30;;;;;;2264272;61;20437;-67
2023/03/31 03:05:19;0.00;0.00;0.62;0.00;0.00;0.62;2.57;1.60;;;24.90;25.40;;;;;;2265126;61;20363;-67
2023/03/31 03:08:28;0.00;0.00;0.62;0.00;0.00;0.62;1.70;1.27;;;24.90;25.40;;;;;;2264708;61;20367;-65
2023/03/31 03:11:20;0.00;0.00;0.62;0.00;0.00;0.62;1.47;0.90;;;24.90;25.40;;;;;;2264139;61;20362;-66
2023/03/31 03:14:16;0.00;0.00;0.62;0.00;0.00;0.62;1.80;1.37;;;24.90;25.40;;;;;;2262311;61;20360;-66
2023/03/31 03:17:08;0.00;0.00;0.62;0.00;0.00;0.62;2.10;1.30;;;24.90;25.40;;;;;;2264126;61;20768;-65
2023/03/31 03:19:55;0.00;0.00;0.62;0.00;0.00;0.62;2.40;1.50;;;24.90;25.40;;;;;;2268088;61;20417;-66
2023/03/31 03:22:42;0.00;0.00;0.62;0.00;0.00;0.62;1.90;1.17;;;24.90;25.40;;;;;;2264785;61;20858;-66
2023/03/31 03:25:29;0.00;0.00;0.62;0.00;0.00;0.62;2.23;1.50;;;24.90;25.40;;;;;;2267883;61;20424;-65
2023/03/31 03:28:13;0.00;0.00;0.62;0.00;0.00;0.62;2.17;1.20;;;24.90;25.40;;;;;;2268398;61;20362;-67
2023/03/31 03:30:58;0.00;0.00;0.62;0.00;0.00;0.62;1.80;1.13;;;24.90;25.40;;;;;;2264112;61;20437;-67
2023/03/31 03:33:43;0.00;0.00;0.62;0.00;0.00;0.62;1.63;1.20;;;24.90;25.40;;;;;;2268231;61;20371;-67
2023/03/31 03:36:28;0.00;0.00;0.62;0.00;0.00;0.62;2.00;1.03;;;24.90;25.40;;;;;;2268368;61;20807;-66
2023/03/31 03:39:14;0.00;0.00;0.62;0.00;0.00;0.62;2.00;1.20;;;24.90;25.40;;;;;;2266914;61;20941;-67
2023/03/31 03:41:59;0.00;0.00;0.62;0.00;0.00;0.62;1.90;1.33;;;24.90;25.40;;;;;;2268185;61;20379;-67
2023/03/31 03:44:44;0.00;0.00;0.62;0.00;0.00;0.62;1.70;1.13;;;24.90;25.40;;;;;;2267830;61;20391;-67
2023/03/31 03:47:29;0.00;0.00;0.62;0.00;0.00;0.62;2.50;1.27;;;24.80;25.30;;;;;;2267664;61;20465;-68
2023/03/31 03:50:14;0.00;0.00;0.62;0.00;0.00;0.62;1.87;1.17;;;24.80;25.30;;;;;;2268165;61;20413;-65
2023/03/31 03:52:59;0.00;0.00;0.62;0.00;0.00;0.62;2.17;1.20;;;24.90;25.40;;;;;;2268508;61;20763;-65
2023/03/31 03:55:48;0.00;0.00;0.62;0.00;0.00;0.62;2.20;1.27;;;24.80;25.30;;;;;;2268865;61;20375;-65
2023/03/31 03:58:33;0.00;0.00;0.62;0.00;0.00;0.62;1.97;1.13;;;24.80;25.90;;;;;;2269023;61;20497;-65
2023/03/31 04:01:18;0.00;0.00;0.62;0.00;0.00;0.62;1.60;1.00;;;24.90;25.40;;;;;;2268118;61;21078;-66
2023/03/31 04:04:03;0.00;0.00;0.62;0.00;0.00;0.62;1.97;0.90;;;24.80;25.30;;;;;;2268956;61;20371;-67
2023/03/31 04:06:48;0.00;0.00;0.62;0.00;0.00;0.62;2.37;1.47;;;24.90;25.40;;;;;;2268886;61;20405;-67
2023/03/31 04:09:32;0.00;0.00;0.62;0.00;0.00;0.62;2.17;1.10;;;24.90;25.40;;;;;;2268093;61;20761;-66
2023/03/31 04:12:18;0.00;0.00;0.62;0.00;0.00;0.62;2.13;1.30;;;24.80;25.30;;;;;;2268631;61;20387;-66
2023/03/31 04:15:05;0.00;0.00;0.62;0.00;0.00;0.62;1.90;1.17;;;24.80;25.30;;;;;;2268578;61;20432;-66
2023/03/31 04:17:53;0.00;0.00;0.62;0.00;0.00;0.62;2.00;1.10;;;24.80;25.30;;;;;;2268551;61;20386;-66
2023/03/31 04:20:38;0.00;0.00;0.62;0.00;0.00;0.62;1.83;1.30;;;24.80;25.30;;;;;;2268775;61;20465;-65
2023/03/31 04:23:25;0.00;0.00;0.62;0.00;0.00;0.62;1.60;1.00;;;24.80;25.30;;;;;;2268174;61;20472;-66
2023/03/31 04:26:11;0.00;0.00;0.62;0.00;0.00;0.62;1.77;1.13;;;24.80;25.40;;;;;;2268851;61;20485;-67
2023/03/31 04:29:00;0.00;0.00;0.62;0.00;0.00;0.62;1.93;1.03;;;24.80;25.30;;;;;;2265381;61;20382;-69
2023/03/31 04:31:44;0.00;0.00;0.62;0.00;0.00;0.62;2.07;1.10;;;24.80;25.30;;;;;;2268461;61;20391;-67
2023/03/31 04:34:35;0.00;0.00;0.62;0.00;0.00;0.62;1.70;1.00;;;24.80;25.30;;;;;;2268779;61;20824;-66
2023/03/31 04:37:20;0.00;0.00;0.62;0.00;0.00;0.62;2.13;0.90;;;24.80;25.30;;;;;;2268461;61;20379;-67
2023/03/31 04:40:09;0.00;0.00;0.62;0.00;0.00;0.62;1.80;1.10;;;24.80;25.40;;;;;;2267839;61;20414;-67
2023/03/31 04:42:54;0.00;0.00;0.62;0.00;0.00;0.62;1.60;1.00;;;24.80;25.40;;;;;;2268801;61;20479;-68
2023/03/31 04:45:41;0.00;0.00;0.62;0.00;0.00;0.62;2.20;1.30;;;24.80;25.30;;;;;;2267862;61;20367;-67
2023/03/31 04:48:25;0.00;0.00;0.62;0.00;0.00;0.62;1.60;1.00;;;24.80;25.30;;;;;;2268701;61;20814;-67
2023/03/31 04:51:10;0.00;0.00;0.62;0.00;0.00;0.62;1.70;1.13;;;24.80;25.30;;;;;;2268385;61;20358;-67
2023/03/31 04:53:55;0.00;0.00;0.62;0.00;0.00;0.62;1.50;1.00;;;24.80;25.30;;;;;;2267963;61;20355;-67
2023/03/31 04:56:39;0.00;0.00;0.62;0.00;0.00;0.62;1.70;1.00;;;24.80;25.30;;;;;;2268711;61;20395;-67
2023/03/31 04:59:24;0.00;0.00;0.62;0.00;0.00;0.62;1.70;1.00;;;24.80;25.30;;;;;;2267986;61;20425;-67
2023/03/31 05:02:11;0.00;0.00;0.62;0.00;0.00;0.62;1.77;1.03;;;24.80;25.40;;;;;;2267562;61;20383;-67
2023/03/31 05:04:56;0.00;0.00;0.62;0.00;0.00;0.62;1.70;1.00;;;24.80;25.40;;;;;;2268730;61;20437;-67
2023/03/31 05:07:40;0.00;0.00;0.62;0.00;0.00;0.62;2.23;1.30;;;24.80;25.30;;;;;;2267911;61;20442;-67
2023/03/31 05:10:25;0.00;0.00;0.62;0.00;0.00;0.62;2.00;1.20;;;24.80;25.40;;;;;;2268309;61;20363;-67
2023/03/31 05:13:10;0.00;0.00;0.62;0.00;0.00;0.62;3.20;1.47;;;24.80;25.40;;;;;;2268443;61;20435;-67
2023/03/31 05:15:55;0.00;0.00;0.62;0.00;0.00;0.62;1.80;1.30;;;24.80;25.30;;;;;;2268031;61;20379;-67
2023/03/31 05:18:41;0.00;0.00;0.62;0.00;0.00;0.62;2.10;1.50;;;24.80;25.40;;;;;;2268635;61;20782;-67
2023/03/31 05:21:29;0.00;0.00;0.62;0.00;0.00;0.62;2.20;1.33;;;24.80;25.40;;;;;;2268155;61;20855;-67
2023/03/31 05:24:14;0.00;0.00;0.62;0.00;0.00;0.62;2.00;1.37;;;24.70;25.30;;;;;;2264579;61;20363;-67
2023/03/31 05:26:58;0.00;0.00;0.62;0.00;0.00;0.62;2.23;1.50;;;24.70;25.30;;;;;;2268771;61;20394;-67
2023/03/31 05:29:43;0.00;0.00;0.62;0.00;0.00;0.62;1.80;1.23;;;24.80;25.40;;;;;;2267233;61;20814;-67
2023/03/31 05:32:27;0.00;0.00;0.62;0.00;0.00;0.62;2.30;1.50;;;24.80;25.40;;;;;;2268619;61;20448;-67
2023/03/31 05:35:13;0.00;0.00;0.62;0.00;0.00;0.62;1.97;1.37;;;24.70;25.30;;;;;;2268651;61;20371;-67
2023/03/31 05:37:58;0.00;0.00;0.62;0.00;0.00;0.62;2.67;1.90;;;24.80;25.40;;;;;;2267724;61;20371;-67
2023/03/31 05:40:43;0.00;0.00;0.62;0.00;0.00;0.62;2.43;1.37;;;24.80;25.90;;;;;;2268319;61;20851;-67
2023/03/31 05:43:28;0.00;0.00;0.62;0.00;0.00;0.62;2.70;1.77;;;24.80;25.40;;;;;;2267896;61;20433;-67
2023/03/31 05:46:13;0.00;0.00;0.62;0.00;0.00;0.62;2.50;1.50;;;24.70;25.30;;;;;;2267903;61;20383;-67
2023/03/31 05:48:58;0.00;0.00;0.62;0.00;0.00;0.62;2.83;1.77;;;24.80;25.40;;;;;;2265123;61;20355;-69
2023/03/31 05:51:44;0.00;0.00;0.62;0.00;0.00;0.62;2.70;1.90;;;24.70;25.30;;;;;;2267702;61;20461;-67
2023/03/31 05:54:29;0.00;0.00;0.62;0.00;0.00;0.62;2.40;1.80;;;24.80;25.40;;;;;;2268257;61;20914;-67
2023/03/31 05:57:14;0.00;0.00;0.62;0.00;0.00;0.62;2.40;1.80;;;24.70;25.30;;;;;;2268368;61;20430;-67
2023/03/31 05:59:59;0.00;0.00;0.62;0.00;0.00;0.62;2.40;1.80;;;24.70;25.30;;;;;;2264096;61;20465;-67
2023/03/31 06:02:44;0.00;0.00;0.62;0.00;0.00;0.62;2.13;1.60;;;24.70;25.30;;;;;;2268607;61;21023;-67
2023/03/31 06:05:31;0.00;0.00;0.62;0.00;0.00;0.62;2.40;1.50;;;24.80;25.40;;;;;;2268050;61;20970;-71
2023/03/31 06:08:17;0.00;0.00;0.62;0.00;0.00;0.62;2.07;1.57;;;24.70;25.30;;;;;;2267755;61;20378;-67
2023/03/31 06:11:05;0.00;0.00;0.62;0.00;0.00;0.62;3.17;2.20;;;24.70;25.40;;;;;;2268264;61;20842;-67
2023/03/31 06:13:50;0.00;0.00;0.62;0.00;0.00;0.62;2.67;1.97;;;24.70;25.30;;;;;;2267600;61;20356;-67
2023/03/31 06:16:35;0.00;0.00;0.62;0.00;0.00;0.62;3.90;2.17;;;24.70;25.30;;;;;;2268268;61;20387;-67
2023/03/31 06:19:20;0.00;0.00;0.62;0.00;0.00;0.62;1.80;1.50;;;24.70;25.30;;;;;;2268143;61;20359;-67
2023/03/31 06:22:04;0.00;0.00;0.62;0.00;0.00;0.62;2.67;1.20;;;24.70;25.30;;;;;;2267640;61;20971;-67
2023/03/31 06:24:50;0.00;0.00;0.62;0.00;0.00;0.62;2.10;1.50;;;24.70;25.30;;;;;;2265343;61;20371;-67
2023/03/31 06:27:35;0.00;0.00;0.62;0.00;0.00;0.62;2.60;1.93;;;24.70;25.30;;;;;;2268114;61;20390;-67
2023/03/31 06:30:20;0.00;0.00;0.62;0.00;0.00;0.62;2.40;1.90;;;24.70;25.30;;;;;;2266901;61;21107;-67
2023/03/31 06:33:05;0.00;0.00;0.62;0.00;0.00;0.62;2.00;1.50;;;24.70;25.40;;;;;;2268506;61;20995;-65
2023/03/31 06:35:50;0.00;0.00;0.62;0.00;0.00;0.62;2.40;1.57;;;24.70;25.30;;;;;;2268090;61;20451;-65
2023/03/31 06:38:37;0.00;0.00;0.62;0.00;0.00;0.62;2.70;1.63;;;24.70;25.40;;;;;;2268257;61;20362;-68
2023/03/31 06:41:23;0.00;0.00;0.62;0.00;0.00;0.62;2.60;1.90;;;24.70;25.30;;;;;;2265066;61;20805;-66
2023/03/31 06:44:09;0.00;0.00;0.62;0.00;0.00;0.62;3.17;1.93;;;24.70;25.40;;;;;;2267499;61;20476;-66
2023/03/31 06:46:53;0.00;0.00;0.62;0.00;0.00;0.62;2.47;1.67;;;24.70;25.40;;;;;;2268243;61;20418;-67
2023/03/31 06:49:38;0.00;0.00;0.62;0.00;0.00;0.62;2.37;1.70;;;24.70;25.40;;;;;;2267940;61;20374;-67
2023/03/31 06:52:23;0.00;0.00;0.62;0.00;0.00;0.62;2.97;2.00;;;24.70;25.40;;;;;;2267793;61;20406;-66
2023/03/31 06:55:11;0.00;0.00;0.62;0.00;0.00;0.62;2.33;1.50;;;24.70;25.40;;;;;;2268238;61;20820;-68
2023/03/31 07:00:41;0.00;0.00;0.62;0.00;0.00;0.62;2.40;1.50;;;24.70;25.40;;;;;;2265251;61;20408;-67
2023/03/31 07:03:28;0.00;0.00;0.62;0.00;0.00;0.62;3.20;2.00;;;24.70;25.40;;;;;;2260979;61;20411;-68
2023/03/31 07:06:13;0.00;0.00;0.62;0.00;0.00;0.62;2.20;1.57;;;24.70;25.40;;;;;;2263673;61;20388;-67
2023/03/31 07:08:58;0.00;0.00;0.62;0.00;0.00;0.62;2.63;1.77;;;24.70;25.40;;;;;;2264070;61;20764;-68
2023/03/31 07:11:43;0.00;0.00;0.62;0.00;0.00;0.62;2.60;1.90;;;24.70;25.40;;;;;;2264091;61;20395;-67
2023/03/31 07:14:27;0.00;0.00;0.62;0.00;0.00;0.62;2.23;1.60;;;24.70;25.40;;;;;;2263584;61;20456;-67
2023/03/31 07:17:13;0.00;0.00;0.62;0.00;0.00;0.62;2.47;1.60;;;24.70;25.40;;;;;;2264479;61;20380;-68
2023/03/31 07:19:59;0.00;0.00;0.62;0.00;0.00;0.62;2.03;1.70;;;24.70;25.40;;;;;;2263728;61;20758;-69
2023/03/31 07:22:46;0.00;0.00;0.62;0.00;0.00;0.62;2.40;1.60;;;24.70;25.40;;;;;;2263712;61;20470;-67
2023/03/31 07:25:31;0.00;0.00;0.62;0.00;0.00;0.62;2.33;1.70;;;24.70;25.90;;;;;;2264753;61;20356;-67
2023/03/31 07:28:16;0.00;0.00;0.62;0.00;0.00;0.62;2.33;1.60;;;24.70;25.40;;;;;;2264444;61;20355;-67
2023/03/31 07:31:01;0.00;0.00;0.62;0.00;0.00;0.62;2.57;2.00;;;24.70;25.40;;;;;;2264677;61;20355;-70
2023/03/31 07:33:46;0.00;0.00;0.62;0.00;0.00;0.62;2.63;1.50;;;24.70;25.40;;;;;;2264982;61;20405;-67
2023/03/31 07:36:31;0.00;0.00;0.62;0.00;0.00;0.62;2.53;1.70;;;24.70;25.40;;;;;;2264331;61;20384;-67
2023/03/31 07:39:16;0.00;0.00;0.62;0.00;0.00;0.62;2.40;1.70;;;24.60;25.30;;;;;;2264871;61;20364;-68
2023/03/31 07:42:01;0.00;0.00;0.62;0.00;0.00;0.62;2.33;1.73;;;24.70;25.90;;;;;;2264577;61;20430;-66
2023/03/31 07:44:45;0.00;0.00;0.62;0.00;0.00;0.62;2.20;1.53;;;24.70;25.40;;;;;;2264288;61;20738;-68
2023/03/31 07:47:30;0.00;0.00;0.62;0.00;0.00;0.62;2.50;2.07;;;24.70;25.40;;;;;;2265037;61;20777;-67
2023/03/31 07:50:17;0.00;0.00;0.62;0.00;0.00;0.62;2.50;2.00;;;24.70;25.40;;;;;;2264059;61;20880;-68
2023/03/31 07:53:03;0.00;0.00;0.62;0.00;0.00;0.62;2.53;1.97;;;24.70;25.40;;;;;;2261577;61;20368;-67
2023/03/31 07:55:47;0.00;0.00;0.62;0.00;0.00;0.62;3.87;2.43;;;24.60;25.30;;;;;;2265017;61;20432;-67
2023/03/31 07:58:32;0.00;0.00;0.62;0.00;0.00;0.62;2.70;2.00;;;24.70;25.40;;;;;;2264085;61;20364;-67
2023/03/31 08:01:19;0.00;0.00;0.62;0.00;0.00;0.62;2.77;1.80;;;24.60;25.30;;;;;;2261742;61;20848;-67
2023/03/31 08:04:04;0.00;0.00;0.62;0.00;0.00;0.62;2.47;2.03;;;24.70;25.40;;;;;;2264572;61;20368;-66
2023/03/31 08:06:51;0.00;0.00;0.62;0.00;0.00;0.62;2.53;1.80;;;24.60;25.30;;;;;;2265623;55;20433;-66
2023/03/31 08:09:36;0.00;0.00;0.62;0.00;0.00;0.62;3.97;2.53;;;24.60;25.30;;;;;;2260409;61;20901;-67
2023/03/31 08:12:21;0.00;0.00;0.62;0.00;0.00;0.62;2.60;2.00;;;24.60;25.40;;;;;;2259935;61;20468;-66
2023/03/31 08:15:07;0.00;0.00;0.62;0.00;0.00;0.62;2.53;1.90;;;24.70;25.40;;;;;;2260475;61;20407;-66
2023/03/31 08:17:52;0.00;0.00;0.62;0.00;0.00;0.62;2.80;2.20;;;24.60;25.40;;;;;;2264876;61;20473;-67
2023/03/31 08:20:38;0.00;0.00;0.62;0.00;0.00;0.62;2.50;1.90;;;24.60;25.40;;;;;;2263324;61;20861;-68
2023/03/31 08:23:24;0.00;0.00;0.62;0.00;0.00;0.62;2.47;2.10;;;24.60;25.40;;;;;;2264850;61;20425;-67
2023/03/31 08:26:11;0.00;0.00;0.62;0.00;0.00;0.62;2.70;2.20;;;24.60;25.40;;;;;;2264421;61;20430;-68
2023/03/31 08:28:57;0.00;0.00;0.62;0.00;0.00;0.62;2.80;1.90;;;24.70;25.40;;;;;;2264084;61;20434;-67
2023/03/31 08:31:42;0.00;0.00;0.62;0.00;0.00;0.62;2.97;2.23;;;24.60;25.40;;;;;;2261439;61;20359;-67
2023/03/31 08:34:27;0.00;0.00;0.62;0.00;0.00;0.62;2.90;2.00;;;24.60;25.40;;;;;;2264258;61;20756;-66
2023/03/31 08:37:11;0.00;0.00;0.62;0.00;0.00;0.62;3.70;2.33;;;24.60;25.40;;;;;;2264289;61;20430;-68
2023/03/31 08:39:58;0.00;0.00;0.62;0.00;0.00;0.62;2.77;2.10;;;24.60;25.40;;;;;;2264517;61;20930;-67
2023/03/31 08:42:48;0.00;0.00;0.62;0.00;0.00;0.62;2.60;2.20;;;24.60;25.40;;;;;;2264149;61;20398;-67
2023/03/31 08:45:35;0.00;0.00;0.62;0.00;0.00;0.62;2.67;2.30;;;24.60;25.40;;;;;;2264903;61;20907;-67
2023/03/31 08:48:26;0.00;0.00;0.62;0.00;0.00;0.62;2.60;1.97;;;24.60;25.40;;;;;;2264377;61;20478;-66
2023/03/31 08:51:14;0.00;0.00;0.62;0.00;0.00;0.62;3.70;2.10;;;24.60;25.40;;;;;;2263928;61;20367;-66
2023/03/31 08:54:02;0.00;0.00;0.62;0.00;0.00;0.62;2.60;2.03;;;24.60;25.40;;;;;;2264539;61;20368;-68
2023/03/31 08:56:50;0.00;0.00;0.62;0.00;0.00;0.62;2.80;1.80;;;24.60;25.40;;;;;;2264110;61;20418;-67
2023/03/31 08:59:36;0.00;0.00;0.62;0.00;0.00;0.62;2.93;2.00;;;24.60;25.40;;;;;;2261008;61;20360;-67
2023/03/31 09:02:28;0.00;0.00;0.62;0.00;0.00;0.62;2.97;2.10;;;24.60;25.40;;;;;;2264693;61;20799;-68
2023/03/31 09:05:42;0.00;0.00;0.62;0.00;0.00;0.62;2.50;2.13;;;24.60;25.40;;;;;;2264033;61;20380;-67
2023/03/31 09:08:38;0.00;0.00;0.62;0.00;0.00;0.62;3.23;2.13;;;24.60;25.40;;;;;;2264429;61;20452;-67
2023/03/31 09:11:33;0.00;0.00;0.62;0.00;0.00;0.62;2.77;2.10;;;24.60;25.50;;;;;;2264185;61;20378;-67
2023/03/31 09:14:30;0.00;0.00;0.62;0.00;0.00;0.62;2.63;1.77;;;24.60;25.50;;;;;;2264411;61;20402;-67
2023/03/31 09:17:22;0.00;0.00;0.62;0.00;0.00;0.62;2.80;1.93;;;24.60;25.50;;;;;;2264924;61;20514;-65
2023/03/31 09:20:15;0.00;0.00;0.62;0.00;0.00;0.62;2.73;2.17;;;24.60;25.50;;;;;;2263856;61;20448;-65
2023/03/31 09:23:12;0.00;0.00;0.62;0.00;0.00;0.62;3.33;2.20;;;24.60;25.50;;;;;;2264738;61;20375;-65
2023/03/31 09:25:58;0.00;0.00;0.62;0.00;0.00;0.62;2.67;2.00;;;24.60;25.50;;;;;;2261197;61;20538;-68
2023/03/31 09:28:44;0.00;0.00;0.62;0.00;0.00;0.62;2.80;2.20;;;24.60;25.50;;;;;;2264472;61;20369;-67
2023/03/31 09:31:31;0.00;0.00;0.62;0.00;0.00;0.62;2.77;2.10;;;24.60;25.40;;;;;;2264622;61;20364;-66
2023/03/31 09:34:23;0.00;0.00;0.62;0.00;0.00;0.62;3.47;3.03;;;24.60;25.50;;;;;;2263612;61;20356;-66
2023/03/31 09:37:09;0.00;0.00;0.62;0.00;0.00;0.62;2.50;1.90;;;24.60;25.50;;;;;;2264858;61;20416;-67
2023/03/31 09:39:54;0.00;0.00;0.62;0.00;0.00;0.62;3.13;2.00;;;24.60;25.50;;;;;;2263732;61;20447;-67
2023/03/31 09:42:38;0.00;0.00;0.62;0.00;0.00;0.62;3.00;1.90;;;24.60;25.50;;;;;;2264044;61;20442;-68
2023/03/31 09:45:23;0.00;0.00;0.62;0.00;0.00;0.62;2.47;2.00;;;24.60;25.50;;;;;;2264591;61;20363;-67
2023/03/31 09:48:15;0.00;0.00;0.62;0.00;0.00;0.62;2.80;1.93;;;24.60;25.50;;;;;;2263991;61;20360;-67
2023/03/31 09:51:04;0.00;0.00;0.62;0.00;0.00;0.62;2.47;2.00;;;24.60;25.50;;;;;;2263811;61;20383;-67
2023/03/31 09:53:54;0.00;0.00;0.62;0.00;0.00;0.62;3.03;2.13;;;24.60;25.50;;;;;;2261313;61;20403;-68
2023/03/31 09:57:12;0.00;0.00;0.62;0.00;0.00;0.62;3.00;2.17;;;24.60;25.50;;;;;;2277895;40;21133;-67
2023/03/31 10:00:17;0.00;0.00;0.62;0.00;0.00;0.62;3.00;2.17;;;24.60;25.50;;;;;;2269655;61;20371;-67
2023/03/31 10:03:07;0.00;0.00;0.62;0.00;0.00;0.62;2.63;1.83;;;24.60;25.50;;;;;;2268289;61;20474;-67
2023/03/31 10:05:57;0.00;0.00;0.62;0.00;0.00;0.62;4.10;3.07;;;24.60;25.50;;;;;;2268398;61;20366;-67
2023/03/31 10:08:47;0.00;0.00;0.62;0.00;0.00;0.62;3.23;2.57;;;24.60;25.50;;;;;;2268368;61;20359;-72
2023/03/31 10:11:32;0.00;0.00;0.62;0.00;0.00;0.62;2.47;1.80;;;24.60;25.50;;;;;;2265591;61;20399;-65
2023/03/31 10:14:23;0.00;0.00;0.62;0.00;0.00;0.62;2.50;2.07;;;24.60;25.50;;;;;;2264372;61;20400;-67
2023/03/31 10:17:14;0.00;0.00;0.62;0.00;0.00;0.62;3.23;2.20;;;24.60;25.50;;;;;;2264193;61;20380;-68
2023/03/31 10:20:17;0.00;0.00;0.62;0.00;0.00;0.62;2.73;2.00;;;24.60;25.50;;;;;;2263015;61;20352;-67
2023/03/31 10:23:15;0.00;0.00;0.62;0.00;0.00;0.62;2.80;1.93;;;24.60;25.50;;;;;;2264749;61;20399;-64
2023/03/31 10:26:02;0.00;0.00;0.62;0.00;0.00;0.62;2.67;1.73;;;24.60;25.50;;;;;;2263142;61;20518;-64
2023/03/31 10:28:51;0.00;0.00;0.62;0.00;0.00;0.62;2.77;2.20;;;24.60;25.50;;;;;;2264717;61;20872;-65
2023/03/31 10:31:37;0.00;0.00;0.62;0.00;0.00;0.62;3.07;1.80;;;24.60;25.50;;;;;;2264225;61;20383;-64
2023/03/31 10:34:23;0.00;0.00;0.62;0.00;0.00;0.62;2.47;1.80;;;24.60;25.50;;;;;;2263450;61;20768;-65
2023/03/31 10:37:14;0.00;0.00;0.62;0.00;0.00;0.62;2.90;2.10;;;24.60;25.50;;;;;;2264449;61;20394;-67
2023/03/31 10:40:07;0.00;0.00;0.62;0.00;0.00;0.62;2.60;2.17;;;24.60;25.50;;;;;;2263765;61;20410;-67
2023/03/31 10:43:04;0.00;0.00;0.62;0.00;0.00;0.62;2.70;2.13;;;24.60;25.50;;;;;;2264055;61;20384;-66
2023/03/31 10:45:53;0.00;0.00;0.62;0.00;0.00;0.62;5.23;2.07;;;24.60;25.50;;;;;;2264691;61;20838;-65
2023/03/31 10:48:41;0.00;0.00;0.62;0.00;0.00;0.62;2.57;1.73;;;24.60;25.50;;;;;;2263475;61;20414;-65
2023/03/31 10:51:26;0.00;0.00;0.62;0.00;0.00;0.62;3.10;2.30;;;24.60;25.50;;;;;;2264568;61;20406;-65
2023/03/31 10:54:11;0.00;0.00;0.62;0.00;0.00;0.62;3.17;2.07;;;24.60;25.50;;;;;;2263987;61;21117;-65
2023/03/31 10:57:02;0.00;0.00;0.62;0.00;0.00;0.62;3.43;1.90;;;24.60;25.50;;;;;;2264193;61;20430;-65
2023/03/31 11:00:04;0.00;0.00;0.62;0.00;0.00;0.62;2.60;1.90;;;24.60;25.50;;;;;;2272302;60;20385;-68
2023/03/31 11:03:20;0.00;0.00;0.62;0.00;0.00;0.62;2.50;2.00;;;24.60;25.50;;;;;;2269247;61;20440;-67
2023/03/31 11:06:15;0.00;0.00;0.62;0.00;0.00;0.62;2.70;2.00;;;24.60;25.50;;;;;;2273389;60;20378;-71
2023/03/31 11:09:18;0.00;0.00;0.62;0.00;0.00;0.62;2.80;1.97;;;24.60;25.50;;;;;;2269463;61;20447;-65
2023/03/31 11:12:16;0.00;0.00;0.62;0.00;0.00;0.62;1.87;1.40;;;24.60;25.50;;;;;;2272383;60;20883;-69